sensor_id;sensor_type;location;lat;lon;timestamp;P1;durP1;ratioP1;P2;durP2;ratioP2
5273;SDS011;56254;50.956;7.010;2022-11-15T00:00:06;18.07;;;7.77;;
5273;SDS011;56254;50.956;7.010;2022-11-15T00:02:32;11.20;;;6.90;;
5273;SDS011;56254;50.956;7.010;2022-11-15T00:04:58;12.30;;;6.90;;
5273;SDS011;56254;50.956;7.010;2022-11-15T00:07:24;19.60;;;7.67;;
5273;SDS011;56254;50.956;7.010;2022-11-15T00:09:49;14.33;;;7.47;;
5273;SDS011;56254;50.956;7.010;2022-11-15T00:12:15;15.77;;;6.90;;
5273;SDS011;56254;50.956;7.010;2022-11-15T00:14:42;12.30;;;7.47;;
5273;SDS011;56254;50.956;7.010;2022-11-15T00:17:07;15.30;;;7.80;;
5273;SDS011;56254;50.956;7.010;2022-11-15T00:19:33;17.80;;;8.87;;
5273;SDS011;56254;50.956;7.010;2022-11-15T00:21:58;14.20;;;7.07;;
5273;SDS011;56254;50.956;7.010;2022-11-15T00:24:24;12.20;;;7.33;;
5273;SDS011;56254;50.956;7.010;2022-11-15T00:26:50;10.70;;;7.80;;
5273;SDS011;56254;50.956;7.010;2022-11-15T00:29:16;16.60;;;7.77;;
5273;SDS011;56254;50.956;7.010;2022-11-15T00:31:42;18.77;;;8.20;;
5273;SDS011;56254;50.956;7.010;2022-11-15T00:34:09;14.70;;;7.70;;
5273;SDS011;56254;50.956;7.010;2022-11-15T00:36:35;18.57;;;7.13;;
5273;SDS011;56254;50.956;7.010;2022-11-15T00:39:02;14.40;;;7.30;;
5273;SDS011;56254;50.956;7.010;2022-11-15T00:41:30;10.60;;;7.53;;
5273;SDS011;56254;50.956;7.010;2022-11-15T00:43:57;12.13;;;6.97;;
5273;SDS011;56254;50.956;7.010;2022-11-15T00:46:22;22.20;;;8.47;;
5273;SDS011;56254;50.956;7.010;2022-11-15T00:48:48;23.63;;;7.60;;
5273;SDS011;56254;50.956;7.010;2022-11-15T00:51:14;15.00;;;7.03;;
5273;SDS011;56254;50.956;7.010;2022-11-15T00:53:39;11.17;;;8.13;;
5273;SDS011;56254;50.956;7.010;2022-11-15T00:56:05;16.00;;;7.60;;
5273;SDS011;56254;50.956;7.010;2022-11-15T00:58:31;13.10;;;7.60;;
5273;SDS011;56254;50.956;7.010;2022-11-15T01:01:04;12.87;;;7.43;;
5273;SDS011;56254;50.956;7.010;2022-11-15T01:03:32;12.30;;;8.40;;
5273;SDS011;56254;50.956;7.010;2022-11-15T01:05:59;12.23;;;7.40;;
5273;SDS011;56254;50.956;7.010;2022-11-15T01:08:25;13.60;;;8.20;;
5273;SDS011;56254;50.956;7.010;2022-11-15T01:10:51;12.17;;;7.40;;
5273;SDS011;56254;50.956;7.010;2022-11-15T01:13:17;15.30;;;7.87;;
5273;SDS011;56254;50.956;7.010;2022-11-15T01:15:43;11.03;;;7.43;;
5273;SDS011;56254;50.956;7.010;2022-11-15T01:18:09;19.63;;;7.93;;
5273;SDS011;56254;50.956;7.010;2022-11-15T01:20:38;16.43;;;8.03;;
5273;SDS011;56254;50.956;7.010;2022-11-15T01:23:05;11.03;;;7.73;;
5273;SDS011;56254;50.956;7.010;2022-11-15T01:25:31;9.83;;;6.60;;
5273;SDS011;56254;50.956;7.010;2022-11-15T01:27:58;21.80;;;7.80;;
5273;SDS011;56254;50.956;7.010;2022-11-15T01:30:23;15.60;;;7.50;;
5273;SDS011;56254;50.956;7.010;2022-11-15T01:32:49;13.27;;;7.03;;
5273;SDS011;56254;50.956;7.010;2022-11-15T01:35:14;10.63;;;8.73;;
5273;SDS011;56254;50.956;7.010;2022-11-15T01:37:40;12.30;;;7.20;;
5273;SDS011;56254;50.956;7.010;2022-11-15T01:40:08;19.90;;;8.87;;
5273;SDS011;56254;50.956;7.010;2022-11-15T01:42:34;12.57;;;7.60;;
5273;SDS011;56254;50.956;7.010;2022-11-15T01:44:59;14.27;;;7.40;;
5273;SDS011;56254;50.956;7.010;2022-11-15T01:47:27;14.43;;;7.63;;
5273;SDS011;56254;50.956;7.010;2022-11-15T01:49:59;17.87;;;8.80;;
5273;SDS011;56254;50.956;7.010;2022-11-15T01:52:28;12.03;;;7.63;;
5273;SDS011;56254;50.956;7.010;2022-11-15T01:57:32;11.93;;;6.67;;
5273;SDS011;56254;50.956;7.010;2022-11-15T01:59:59;20.03;;;7.80;;
5273;SDS011;56254;50.956;7.010;2022-11-15T02:02:26;19.37;;;8.43;;
5273;SDS011;56254;50.956;7.010;2022-11-15T02:04:52;13.57;;;7.90;;
5273;SDS011;56254;50.956;7.010;2022-11-15T02:07:18;21.83;;;7.23;;
5273;SDS011;56254;50.956;7.010;2022-11-15T02:09:46;11.80;;;7.43;;
5273;SDS011;56254;50.956;7.010;2022-11-15T02:12:13;19.60;;;8.33;;
5273;SDS011;56254;50.956;7.010;2022-11-15T02:14:42;11.70;;;8.07;;
5273;SDS011;56254;50.956;7.010;2022-11-15T02:23:06;12.73;;;7.27;;
5273;SDS011;56254;50.956;7.010;2022-11-15T02:31:28;8.20;;;6.00;;
5273;SDS011;56254;50.956;7.010;2022-11-15T02:34:39;9.53;;;6.70;;
5273;SDS011;56254;50.956;7.010;2022-11-15T02:42:27;15.70;;;8.10;;
5273;SDS011;56254;50.956;7.010;2022-11-15T02:45:17;11.33;;;7.30;;
5273;SDS011;56254;50.956;7.010;2022-11-15T02:47:48;11.73;;;7.00;;
5273;SDS011;56254;50.956;7.010;2022-11-15T02:50:19;12.43;;;7.20;;
5273;SDS011;56254;50.956;7.010;2022-11-15T02:52:49;9.63;;;6.70;;
5273;SDS011;56254;50.956;7.010;2022-11-15T02:55:28;11.30;;;6.40;;
5273;SDS011;56254;50.956;7.010;2022-11-15T03:01:04;15.00;;;6.87;;
5273;SDS011;56254;50.956;7.010;2022-11-15T03:06:44;10.47;;;6.40;;
5273;SDS011;56254;50.956;7.010;2022-11-15T03:09:20;15.63;;;6.67;;
5273;SDS011;56254;50.956;7.010;2022-11-15T03:12:01;9.40;;;5.60;;
5273;SDS011;56254;50.956;7.010;2022-11-15T03:14:48;9.87;;;6.37;;
5273;SDS011;56254;50.956;7.010;2022-11-15T03:17:35;10.20;;;6.30;;
5273;SDS011;56254;50.956;7.010;2022-11-15T03:20:07;8.60;;;6.50;;
5273;SDS011;56254;50.956;7.010;2022-11-15T03:22:36;12.90;;;6.60;;
5273;SDS011;56254;50.956;7.010;2022-11-15T03:25:06;14.07;;;6.10;;
5273;SDS011;56254;50.956;7.010;2022-11-15T03:27:35;8.90;;;6.50;;
5273;SDS011;56254;50.956;7.010;2022-11-15T03:30:05;13.23;;;6.20;;
5273;SDS011;56254;50.956;7.010;2022-11-15T03:32:43;13.87;;;6.73;;
5273;SDS011;56254;50.956;7.010;2022-11-15T03:35:12;13.73;;;6.33;;
5273;SDS011;56254;50.956;7.010;2022-11-15T03:40:17;11.00;;;6.40;;
5273;SDS011;56254;50.956;7.010;2022-11-15T03:42:48;6.70;;;5.20;;
5273;SDS011;56254;50.956;7.010;2022-11-15T03:45:28;5.77;;;5.03;;
5273;SDS011;56254;50.956;7.010;2022-11-15T03:47:59;9.00;;;5.83;;
5273;SDS011;56254;50.956;7.010;2022-11-15T03:50:30;9.07;;;6.43;;
5273;SDS011;56254;50.956;7.010;2022-11-15T03:52:56;6.60;;;5.60;;
5273;SDS011;56254;50.956;7.010;2022-11-15T03:55:23;8.27;;;5.20;;
5273;SDS011;56254;50.956;7.010;2022-11-15T03:57:50;12.40;;;5.57;;
5273;SDS011;56254;50.956;7.010;2022-11-15T04:00:18;15.73;;;5.90;;
5273;SDS011;56254;50.956;7.010;2022-11-15T04:02:44;11.60;;;6.67;;
5273;SDS011;56254;50.956;7.010;2022-11-15T04:05:10;11.97;;;6.30;;
5273;SDS011;56254;50.956;7.010;2022-11-15T04:07:36;12.30;;;5.93;;
5273;SDS011;56254;50.956;7.010;2022-11-15T04:10:03;8.83;;;6.10;;
5273;SDS011;56254;50.956;7.010;2022-11-15T04:12:30;13.43;;;5.37;;
5273;SDS011;56254;50.956;7.010;2022-11-15T04:14:58;7.60;;;5.67;;
5273;SDS011;56254;50.956;7.010;2022-11-15T04:20:00;12.53;;;6.00;;
5273;SDS011;56254;50.956;7.010;2022-11-15T04:22:46;9.87;;;6.27;;
5273;SDS011;56254;50.956;7.010;2022-11-15T04:25:30;11.03;;;5.77;;
5273;SDS011;56254;50.956;7.010;2022-11-15T04:27:55;11.40;;;6.40;;
5273;SDS011;56254;50.956;7.010;2022-11-15T04:30:23;9.40;;;5.70;;
5273;SDS011;56254;50.956;7.010;2022-11-15T04:32:49;9.43;;;6.40;;
5273;SDS011;56254;50.956;7.010;2022-11-15T04:35:14;15.03;;;6.23;;
5273;SDS011;56254;50.956;7.010;2022-11-15T04:37:40;8.83;;;5.73;;
5273;SDS011;56254;50.956;7.010;2022-11-15T04:40:06;8.07;;;6.83;;
5273;SDS011;56254;50.956;7.010;2022-11-15T04:42:32;6.57;;;5.90;;
5273;SDS011;56254;50.956;7.010;2022-11-15T04:44:57;10.80;;;5.80;;
5273;SDS011;56254;50.956;7.010;2022-11-15T04:47:23;9.33;;;6.53;;
5273;SDS011;56254;50.956;7.010;2022-11-15T04:49:49;7.90;;;6.13;;
5273;SDS011;56254;50.956;7.010;2022-11-15T04:52:14;10.13;;;6.17;;
5273;SDS011;56254;50.956;7.010;2022-11-15T04:54:40;6.07;;;5.30;;
5273;SDS011;56254;50.956;7.010;2022-11-15T04:57:07;8.30;;;5.97;;
5273;SDS011;56254;50.956;7.010;2022-11-15T04:59:32;8.27;;;6.30;;
5273;SDS011;56254;50.956;7.010;2022-11-15T05:01:58;9.33;;;5.57;;
5273;SDS011;56254;50.956;7.010;2022-11-15T05:04:24;11.60;;;6.47;;
5273;SDS011;56254;50.956;7.010;2022-11-15T05:06:50;8.97;;;6.20;;
5273;SDS011;56254;50.956;7.010;2022-11-15T05:09:19;7.53;;;6.37;;
5273;SDS011;56254;50.956;7.010;2022-11-15T05:11:45;11.43;;;6.93;;
5273;SDS011;56254;50.956;7.010;2022-11-15T05:14:12;9.37;;;6.10;;
5273;SDS011;56254;50.956;7.010;2022-11-15T05:16:38;9.50;;;6.33;;
5273;SDS011;56254;50.956;7.010;2022-11-15T05:19:04;10.53;;;5.80;;
5273;SDS011;56254;50.956;7.010;2022-11-15T05:21:30;7.53;;;5.07;;
5273;SDS011;56254;50.956;7.010;2022-11-15T05:23:57;7.37;;;5.73;;
5273;SDS011;56254;50.956;7.010;2022-11-15T05:26:22;10.13;;;5.80;;
5273;SDS011;56254;50.956;7.010;2022-11-15T05:28:51;9.57;;;5.77;;
5273;SDS011;56254;50.956;7.010;2022-11-15T05:31:21;7.83;;;5.53;;
5273;SDS011;56254;50.956;7.010;2022-11-15T05:33:48;19.13;;;5.80;;
5273;SDS011;56254;50.956;7.010;2022-11-15T05:36:25;7.60;;;4.83;;
5273;SDS011;56254;50.956;7.010;2022-11-15T05:38:56;10.60;;;5.00;;
5273;SDS011;56254;50.956;7.010;2022-11-15T05:41:24;9.50;;;5.60;;
5273;SDS011;56254;50.956;7.010;2022-11-15T05:43:56;8.63;;;5.37;;
5273;SDS011;56254;50.956;7.010;2022-11-15T05:46:22;11.07;;;5.70;;
5273;SDS011;56254;50.956;7.010;2022-11-15T05:48:48;8.33;;;4.80;;
5273;SDS011;56254;50.956;7.010;2022-11-15T05:51:16;5.80;;;4.63;;
5273;SDS011;56254;50.956;7.010;2022-11-15T05:53:43;9.83;;;5.87;;
5273;SDS011;56254;50.956;7.010;2022-11-15T05:56:10;7.17;;;5.30;;
5273;SDS011;56254;50.956;7.010;2022-11-15T05:58:37;12.13;;;5.53;;
5273;SDS011;56254;50.956;7.010;2022-11-15T06:01:03;7.87;;;4.60;;
5273;SDS011;56254;50.956;7.010;2022-11-15T06:03:29;6.40;;;5.03;;
5273;SDS011;56254;50.956;7.010;2022-11-15T06:05:55;6.47;;;4.87;;
5273;SDS011;56254;50.956;7.010;2022-11-15T06:08:22;4.53;;;4.13;;
5273;SDS011;56254;50.956;7.010;2022-11-15T06:10:47;5.10;;;4.13;;
5273;SDS011;56254;50.956;7.010;2022-11-15T06:13:13;7.37;;;4.43;;
5273;SDS011;56254;50.956;7.010;2022-11-15T06:15:38;10.03;;;5.20;;
5273;SDS011;56254;50.956;7.010;2022-11-15T06:18:04;5.33;;;4.30;;
5273;SDS011;56254;50.956;7.010;2022-11-15T06:20:30;8.80;;;4.60;;
5273;SDS011;56254;50.956;7.010;2022-11-15T06:23:00;8.00;;;4.93;;
5273;SDS011;56254;50.956;7.010;2022-11-15T06:25:27;4.90;;;4.43;;
5273;SDS011;56254;50.956;7.010;2022-11-15T06:27:54;5.07;;;3.87;;
5273;SDS011;56254;50.956;7.010;2022-11-15T06:30:21;6.10;;;3.93;;
5273;SDS011;56254;50.956;7.010;2022-11-15T06:33:21;7.50;;;4.23;;
5273;SDS011;56254;50.956;7.010;2022-11-15T06:35:39;7.20;;;3.90;;
5273;SDS011;56254;50.956;7.010;2022-11-15T06:38:08;6.83;;;3.97;;
5273;SDS011;56254;50.956;7.010;2022-11-15T06:40:35;5.20;;;3.90;;
5273;SDS011;56254;50.956;7.010;2022-11-15T06:43:02;4.50;;;3.63;;
5273;SDS011;56254;50.956;7.010;2022-11-15T06:45:29;21.97;;;4.23;;
5273;SDS011;56254;50.956;7.010;2022-11-15T06:47:55;14.10;;;3.70;;
5273;SDS011;56254;50.956;7.010;2022-11-15T06:50:21;4.70;;;3.70;;
5273;SDS011;56254;50.956;7.010;2022-11-15T06:52:47;3.60;;;3.30;;
5273;SDS011;56254;50.956;7.010;2022-11-15T06:55:13;4.80;;;3.37;;
5273;SDS011;56254;50.956;7.010;2022-11-15T06:57:49;7.03;;;3.53;;
5273;SDS011;56254;50.956;7.010;2022-11-15T07:00:18;5.33;;;3.60;;
5273;SDS011;56254;50.956;7.010;2022-11-15T07:02:45;9.03;;;4.70;;
5273;SDS011;56254;50.956;7.010;2022-11-15T07:05:12;14.83;;;4.47;;
5273;SDS011;56254;50.956;7.010;2022-11-15T07:07:38;7.60;;;4.10;;
5273;SDS011;56254;50.956;7.010;2022-11-15T07:10:04;8.50;;;4.27;;
5273;SDS011;56254;50.956;7.010;2022-11-15T07:12:31;11.77;;;3.60;;
5273;SDS011;56254;50.956;7.010;2022-11-15T07:14:57;7.83;;;3.87;;
5273;SDS011;56254;50.956;7.010;2022-11-15T07:17:23;4.00;;;3.60;;
5273;SDS011;56254;50.956;7.010;2022-11-15T07:19:48;3.63;;;3.10;;
5273;SDS011;56254;50.956;7.010;2022-11-15T07:22:14;5.33;;;3.50;;
5273;SDS011;56254;50.956;7.010;2022-11-15T07:24:40;7.93;;;3.47;;
5273;SDS011;56254;50.956;7.010;2022-11-15T07:27:05;3.80;;;3.10;;
5273;SDS011;56254;50.956;7.010;2022-11-15T07:29:31;4.70;;;3.60;;
5273;SDS011;56254;50.956;7.010;2022-11-15T07:31:57;7.00;;;3.70;;
5273;SDS011;56254;50.956;7.010;2022-11-15T07:34:22;10.77;;;5.73;;
5273;SDS011;56254;50.956;7.010;2022-11-15T07:36:48;7.23;;;4.90;;
5273;SDS011;56254;50.956;7.010;2022-11-15T07:39:14;9.87;;;4.17;;
5273;SDS011;56254;50.956;7.010;2022-11-15T07:41:40;6.57;;;4.13;;
5273;SDS011;56254;50.956;7.010;2022-11-15T07:44:05;4.13;;;3.70;;
5273;SDS011;56254;50.956;7.010;2022-11-15T07:46:31;4.70;;;3.50;;
5273;SDS011;56254;50.956;7.010;2022-11-15T07:48:57;3.40;;;3.10;;
5273;SDS011;56254;50.956;7.010;2022-11-15T07:51:22;3.87;;;3.50;;
5273;SDS011;56254;50.956;7.010;2022-11-15T07:53:48;8.13;;;3.50;;
5273;SDS011;56254;50.956;7.010;2022-11-15T07:56:14;4.80;;;3.53;;
5273;SDS011;56254;50.956;7.010;2022-11-15T07:58:39;7.43;;;3.87;;
5273;SDS011;56254;50.956;7.010;2022-11-15T08:01:06;3.97;;;2.90;;
5273;SDS011;56254;50.956;7.010;2022-11-15T08:03:33;6.10;;;2.90;;
5273;SDS011;56254;50.956;7.010;2022-11-15T08:05:59;7.10;;;3.07;;
5273;SDS011;56254;50.956;7.010;2022-11-15T08:08:25;10.10;;;3.10;;
5273;SDS011;56254;50.956;7.010;2022-11-15T08:10:51;7.17;;;3.23;;
5273;SDS011;56254;50.956;7.010;2022-11-15T08:13:16;4.83;;;3.50;;
5273;SDS011;56254;50.956;7.010;2022-11-15T08:15:42;3.20;;;2.80;;
5273;SDS011;56254;50.956;7.010;2022-11-15T08:18:12;3.13;;;2.93;;
5273;SDS011;56254;50.956;7.010;2022-11-15T08:20:39;5.97;;;3.07;;
5273;SDS011;56254;50.956;7.010;2022-11-15T08:23:05;6.10;;;3.07;;
5273;SDS011;56254;50.956;7.010;2022-11-15T08:25:33;7.83;;;3.10;;
5273;SDS011;56254;50.956;7.010;2022-11-15T08:28:01;6.50;;;2.63;;
5273;SDS011;56254;50.956;7.010;2022-11-15T08:30:33;10.23;;;2.93;;
5273;SDS011;56254;50.956;7.010;2022-11-15T08:33:03;3.00;;;2.30;;
5273;SDS011;56254;50.956;7.010;2022-11-15T08:35:29;3.67;;;2.63;;
5273;SDS011;56254;50.956;7.010;2022-11-15T08:37:55;20.30;;;2.60;;
5273;SDS011;56254;50.956;7.010;2022-11-15T08:40:21;4.23;;;2.53;;
5273;SDS011;56254;50.956;7.010;2022-11-15T08:42:47;2.70;;;2.50;;
5273;SDS011;56254;50.956;7.010;2022-11-15T08:45:13;3.00;;;2.60;;
5273;SDS011;56254;50.956;7.010;2022-11-15T08:47:39;2.00;;;1.90;;
5273;SDS011;56254;50.956;7.010;2022-11-15T08:50:05;2.30;;;2.10;;
5273;SDS011;56254;50.956;7.010;2022-11-15T08:52:31;3.80;;;2.43;;
5273;SDS011;56254;50.956;7.010;2022-11-15T08:54:56;3.90;;;2.80;;
5273;SDS011;56254;50.956;7.010;2022-11-15T08:57:23;3.03;;;1.87;;
5273;SDS011;56254;50.956;7.010;2022-11-15T08:59:49;4.00;;;2.40;;
5273;SDS011;56254;50.956;7.010;2022-11-15T09:02:15;6.03;;;3.10;;
5273;SDS011;56254;50.956;7.010;2022-11-15T09:04:42;3.57;;;2.10;;
5273;SDS011;56254;50.956;7.010;2022-11-15T09:07:09;5.20;;;2.00;;
5273;SDS011;56254;50.956;7.010;2022-11-15T09:09:35;2.57;;;1.77;;
5273;SDS011;56254;50.956;7.010;2022-11-15T09:12:01;1.87;;;1.67;;
5273;SDS011;56254;50.956;7.010;2022-11-15T09:14:27;1.77;;;1.67;;
5273;SDS011;56254;50.956;7.010;2022-11-15T09:16:53;2.97;;;2.17;;
5273;SDS011;56254;50.956;7.010;2022-11-15T09:19:20;2.03;;;1.93;;
5273;SDS011;56254;50.956;7.010;2022-11-15T09:21:46;8.13;;;2.37;;
5273;SDS011;56254;50.956;7.010;2022-11-15T09:24:11;6.00;;;2.23;;
5273;SDS011;56254;50.956;7.010;2022-11-15T09:26:37;2.67;;;1.80;;
5273;SDS011;56254;50.956;7.010;2022-11-15T09:29:03;6.57;;;2.10;;
5273;SDS011;56254;50.956;7.010;2022-11-15T09:31:29;1.93;;;1.60;;
5273;SDS011;56254;50.956;7.010;2022-11-15T09:33:55;1.53;;;1.43;;
5273;SDS011;56254;50.956;7.010;2022-11-15T09:36:20;4.43;;;1.50;;
5273;SDS011;56254;50.956;7.010;2022-11-15T09:38:46;2.60;;;1.87;;
5273;SDS011;56254;50.956;7.010;2022-11-15T09:47:31;2.47;;;1.30;;
5273;SDS011;56254;50.956;7.010;2022-11-15T09:49:45;6.83;;;1.70;;
5273;SDS011;56254;50.956;7.010;2022-11-15T09:52:12;2.20;;;1.67;;
5273;SDS011;56254;50.956;7.010;2022-11-15T09:54:39;3.27;;;1.97;;
5273;SDS011;56254;50.956;7.010;2022-11-15T10:02:25;3.90;;;1.90;;
5273;SDS011;56254;50.956;7.010;2022-11-15T10:05:04;5.30;;;1.53;;
5273;SDS011;56254;50.956;7.010;2022-11-15T10:07:54;6.30;;;1.67;;
5273;SDS011;56254;50.956;7.010;2022-11-15T10:10:34;1.13;;;1.13;;
5273;SDS011;56254;50.956;7.010;2022-11-15T10:15:51;4.50;;;1.23;;
5273;SDS011;56254;50.956;7.010;2022-11-15T10:20:55;1.20;;;1.20;;
5273;SDS011;56254;50.956;7.010;2022-11-15T10:23:24;2.10;;;1.33;;
5273;SDS011;56254;50.956;7.010;2022-11-15T10:25:59;14.73;;;1.40;;
5273;SDS011;56254;50.956;7.010;2022-11-15T10:28:26;2.00;;;1.30;;
5273;SDS011;56254;50.956;7.010;2022-11-15T10:30:57;2.30;;;1.27;;
5273;SDS011;56254;50.956;7.010;2022-11-15T10:33:29;1.70;;;0.90;;
5273;SDS011;56254;50.956;7.010;2022-11-15T10:41:15;2.40;;;1.33;;
5273;SDS011;56254;50.956;7.010;2022-11-15T10:52:00;2.03;;;1.07;;
5273;SDS011;56254;50.956;7.010;2022-11-15T10:54:36;3.83;;;1.00;;
5273;SDS011;56254;50.956;7.010;2022-11-15T10:57:16;5.23;;;0.93;;
5273;SDS011;56254;50.956;7.010;2022-11-15T10:59:54;5.23;;;0.93;;
5273;SDS011;56254;50.956;7.010;2022-11-15T11:05:27;1.00;;;1.00;;
5273;SDS011;56254;50.956;7.010;2022-11-15T11:10:54;2.30;;;0.60;;
5273;SDS011;56254;50.956;7.010;2022-11-15T11:13:28;1.43;;;0.87;;
5273;SDS011;56254;50.956;7.010;2022-11-15T11:24:44;13.67;;;1.30;;
5273;SDS011;56254;50.956;7.010;2022-11-15T11:27:31;3.73;;;1.00;;
5273;SDS011;56254;50.956;7.010;2022-11-15T11:41:59;4.40;;;1.03;;
5273;SDS011;56254;50.956;7.010;2022-11-15T11:44:35;7.00;;;1.40;;
5273;SDS011;56254;50.956;7.010;2022-11-15T11:47:30;1.57;;;0.90;;
5273;SDS011;56254;50.956;7.010;2022-11-15T11:50:11;6.03;;;1.10;;
5273;SDS011;56254;50.956;7.010;2022-11-15T11:58:16;1.33;;;1.20;;
5273;SDS011;56254;50.956;7.010;2022-11-15T12:00:53;1.43;;;1.00;;
5273;SDS011;56254;50.956;7.010;2022-11-15T12:06:21;1.03;;;1.03;;
5273;SDS011;56254;50.956;7.010;2022-11-15T12:17:12;5.93;;;1.17;;
5273;SDS011;56254;50.956;7.010;2022-11-15T12:19:39;8.63;;;1.73;;
5273;SDS011;56254;50.956;7.010;2022-11-15T12:22:19;2.50;;;1.37;;
5273;SDS011;56254;50.956;7.010;2022-11-15T12:25:21;7.50;;;0.70;;
5273;SDS011;56254;50.956;7.010;2022-11-15T12:28:01;5.97;;;1.10;;
5273;SDS011;56254;50.956;7.010;2022-11-15T12:33:31;1.77;;;0.93;;
5273;SDS011;56254;50.956;7.010;2022-11-15T12:36:09;3.67;;;1.30;;
5273;SDS011;56254;50.956;7.010;2022-11-15T12:38:57;1.00;;;0.90;;
5273;SDS011;56254;50.956;7.010;2022-11-15T12:41:27;3.00;;;1.33;;
5273;SDS011;56254;50.956;7.010;2022-11-15T12:43:55;5.50;;;1.57;;
5273;SDS011;56254;50.956;7.010;2022-11-15T12:46:26;13.13;;;1.27;;
5273;SDS011;56254;50.956;7.010;2022-11-15T12:49:42;6.90;;;1.10;;
5273;SDS011;56254;50.956;7.010;2022-11-15T13:05:51;4.30;;;1.40;;
5273;SDS011;56254;50.956;7.010;2022-11-15T13:08:00;26.30;;;1.30;;
5273;SDS011;56254;50.956;7.010;2022-11-15T13:13:01;5.90;;;1.40;;
5273;SDS011;56254;50.956;7.010;2022-11-15T13:18:25;8.20;;;1.57;;
5273;SDS011;56254;50.956;7.010;2022-11-15T13:21:03;3.83;;;2.17;;
5273;SDS011;56254;50.956;7.010;2022-11-15T13:24:04;4.40;;;2.23;;
5273;SDS011;56254;50.956;7.010;2022-11-15T13:26:41;4.20;;;1.37;;
5273;SDS011;56254;50.956;7.010;2022-11-15T13:29:17;2.43;;;1.67;;
5273;SDS011;56254;50.956;7.010;2022-11-15T13:31:44;5.20;;;1.80;;
5273;SDS011;56254;50.956;7.010;2022-11-15T13:36:59;12.13;;;2.17;;
5273;SDS011;56254;50.956;7.010;2022-11-15T13:39:27;9.00;;;2.70;;
5273;SDS011;56254;50.956;7.010;2022-11-15T13:41:55;2.77;;;2.00;;
5273;SDS011;56254;50.956;7.010;2022-11-15T13:44:23;5.97;;;2.37;;
5273;SDS011;56254;50.956;7.010;2022-11-15T13:47:18;2.47;;;2.27;;
5273;SDS011;56254;50.956;7.010;2022-11-15T13:49:44;5.10;;;1.93;;
5273;SDS011;56254;50.956;7.010;2022-11-15T13:52:12;7.60;;;1.97;;
5273;SDS011;56254;50.956;7.010;2022-11-15T13:54:43;6.13;;;2.27;;
5273;SDS011;56254;50.956;7.010;2022-11-15T13:57:14;1.93;;;1.83;;
5273;SDS011;56254;50.956;7.010;2022-11-15T13:59:45;5.73;;;1.90;;
5273;SDS011;56254;50.956;7.010;2022-11-15T14:02:21;5.53;;;2.70;;
5273;SDS011;56254;50.956;7.010;2022-11-15T14:04:53;3.77;;;2.13;;
5273;SDS011;56254;50.956;7.010;2022-11-15T14:07:22;10.93;;;2.40;;
5273;SDS011;56254;50.956;7.010;2022-11-15T14:14:59;6.97;;;2.20;;
5273;SDS011;56254;50.956;7.010;2022-11-15T14:19:55;3.90;;;2.43;;
5273;SDS011;56254;50.956;7.010;2022-11-15T14:22:27;7.47;;;2.27;;
5273;SDS011;56254;50.956;7.010;2022-11-15T14:27:42;6.33;;;2.57;;
5273;SDS011;56254;50.956;7.010;2022-11-15T14:30:12;11.80;;;2.50;;
5273;SDS011;56254;50.956;7.010;2022-11-15T14:32:49;3.13;;;2.30;;
5273;SDS011;56254;50.956;7.010;2022-11-15T14:35:19;2.03;;;1.83;;
5273;SDS011;56254;50.956;7.010;2022-11-15T14:37:47;6.10;;;2.33;;
5273;SDS011;56254;50.956;7.010;2022-11-15T14:40:18;3.47;;;2.17;;
5273;SDS011;56254;50.956;7.010;2022-11-15T14:42:46;3.50;;;2.80;;
5273;SDS011;56254;50.956;7.010;2022-11-15T14:45:19;4.60;;;2.83;;
5273;SDS011;56254;50.956;7.010;2022-11-15T14:47:46;4.60;;;2.30;;
5273;SDS011;56254;50.956;7.010;2022-11-15T14:50:14;5.70;;;2.03;;
5273;SDS011;56254;50.956;7.010;2022-11-15T14:52:42;3.57;;;2.10;;
5273;SDS011;56254;50.956;7.010;2022-11-15T14:57:48;12.27;;;2.40;;
5273;SDS011;56254;50.956;7.010;2022-11-15T15:00:14;5.00;;;2.27;;
5273;SDS011;56254;50.956;7.010;2022-11-15T15:02:40;2.93;;;1.87;;
5273;SDS011;56254;50.956;7.010;2022-11-15T15:05:14;11.40;;;2.40;;
5273;SDS011;56254;50.956;7.010;2022-11-15T15:07:44;3.43;;;2.00;;
5273;SDS011;56254;50.956;7.010;2022-11-15T15:10:10;3.00;;;2.47;;
5273;SDS011;56254;50.956;7.010;2022-11-15T15:12:37;5.97;;;2.43;;
5273;SDS011;56254;50.956;7.010;2022-11-15T15:15:03;9.23;;;2.27;;
5273;SDS011;56254;50.956;7.010;2022-11-15T15:17:30;2.03;;;1.80;;
5273;SDS011;56254;50.956;7.010;2022-11-15T15:19:56;2.20;;;2.00;;
5273;SDS011;56254;50.956;7.010;2022-11-15T15:22:21;8.67;;;2.40;;
5273;SDS011;56254;50.956;7.010;2022-11-15T15:24:50;3.00;;;2.10;;
5273;SDS011;56254;50.956;7.010;2022-11-15T15:27:17;5.53;;;2.30;;
5273;SDS011;56254;50.956;7.010;2022-11-15T15:29:42;4.30;;;2.70;;
5273;SDS011;56254;50.956;7.010;2022-11-15T15:32:08;5.23;;;2.37;;
5273;SDS011;56254;50.956;7.010;2022-11-15T15:34:35;4.80;;;1.93;;
5273;SDS011;56254;50.956;7.010;2022-11-15T15:39:50;2.00;;;1.60;;
5273;SDS011;56254;50.956;7.010;2022-11-15T15:42:17;8.60;;;2.70;;
5273;SDS011;56254;50.956;7.010;2022-11-15T15:44:44;5.60;;;1.63;;
5273;SDS011;56254;50.956;7.010;2022-11-15T15:47:11;14.33;;;4.00;;
5273;SDS011;56254;50.956;7.010;2022-11-15T15:49:39;8.40;;;2.07;;
5273;SDS011;56254;50.956;7.010;2022-11-15T15:52:05;2.00;;;1.90;;
5273;SDS011;56254;50.956;7.010;2022-11-15T15:54:31;8.53;;;1.73;;
5273;SDS011;56254;50.956;7.010;2022-11-15T15:56:56;2.50;;;1.70;;
5273;SDS011;56254;50.956;7.010;2022-11-15T15:59:22;12.23;;;1.80;;
5273;SDS011;56254;50.956;7.010;2022-11-15T16:01:48;4.03;;;2.30;;
5273;SDS011;56254;50.956;7.010;2022-11-15T16:04:13;5.03;;;2.90;;
5273;SDS011;56254;50.956;7.010;2022-11-15T16:06:39;1.77;;;1.67;;
5273;SDS011;56254;50.956;7.010;2022-11-15T16:09:18;14.33;;;5.37;;
5273;SDS011;56254;50.956;7.010;2022-11-15T16:12:08;2.50;;;1.77;;
5273;SDS011;56254;50.956;7.010;2022-11-15T16:14:34;7.77;;;1.90;;
5273;SDS011;56254;50.956;7.010;2022-11-15T16:17:00;8.50;;;2.10;;
5273;SDS011;56254;50.956;7.010;2022-11-15T16:19:26;4.30;;;1.60;;
5273;SDS011;56254;50.956;7.010;2022-11-15T16:21:51;8.80;;;2.10;;
5273;SDS011;56254;50.956;7.010;2022-11-15T16:24:17;2.00;;;1.70;;
5273;SDS011;56254;50.956;7.010;2022-11-15T16:26:44;4.37;;;2.00;;
5273;SDS011;56254;50.956;7.010;2022-11-15T16:29:14;2.83;;;2.13;;
5273;SDS011;56254;50.956;7.010;2022-11-15T16:31:41;5.53;;;2.00;;
5273;SDS011;56254;50.956;7.010;2022-11-15T16:34:06;6.83;;;2.40;;
5273;SDS011;56254;50.956;7.010;2022-11-15T16:36:33;2.30;;;1.93;;
5273;SDS011;56254;50.956;7.010;2022-11-15T16:38:59;2.13;;;1.93;;
5273;SDS011;56254;50.956;7.010;2022-11-15T16:41:29;6.80;;;2.93;;
5273;SDS011;56254;50.956;7.010;2022-11-15T16:43:58;4.63;;;2.47;;
5273;SDS011;56254;50.956;7.010;2022-11-15T16:46:26;8.50;;;2.00;;
5273;SDS011;56254;50.956;7.010;2022-11-15T16:48:53;3.57;;;1.50;;
5273;SDS011;56254;50.956;7.010;2022-11-15T16:51:19;1.77;;;1.67;;
5273;SDS011;56254;50.956;7.010;2022-11-15T16:53:45;2.50;;;1.97;;
5273;SDS011;56254;50.956;7.010;2022-11-15T16:56:25;3.30;;;2.50;;
5273;SDS011;56254;50.956;7.010;2022-11-15T16:58:53;3.87;;;2.60;;
5273;SDS011;56254;50.956;7.010;2022-11-15T17:01:43;8.67;;;2.33;;
5273;SDS011;56254;50.956;7.010;2022-11-15T17:04:15;2.73;;;1.83;;
5273;SDS011;56254;50.956;7.010;2022-11-15T17:06:46;1.70;;;1.60;;
5273;SDS011;56254;50.956;7.010;2022-11-15T17:09:19;2.87;;;2.23;;
5273;SDS011;56254;50.956;7.010;2022-11-15T17:11:52;3.67;;;2.40;;
5273;SDS011;56254;50.956;7.010;2022-11-15T17:14:18;5.00;;;1.97;;
5273;SDS011;56254;50.956;7.010;2022-11-15T17:16:45;2.50;;;2.10;;
5273;SDS011;56254;50.956;7.010;2022-11-15T17:19:13;11.40;;;2.30;;
5273;SDS011;56254;50.956;7.010;2022-11-15T17:21:43;4.30;;;2.47;;
5273;SDS011;56254;50.956;7.010;2022-11-15T17:24:10;3.00;;;2.27;;
5273;SDS011;56254;50.956;7.010;2022-11-15T17:26:36;5.50;;;2.23;;
5273;SDS011;56254;50.956;7.010;2022-11-15T17:29:03;8.40;;;2.77;;
5273;SDS011;56254;50.956;7.010;2022-11-15T17:31:32;6.53;;;2.00;;
5273;SDS011;56254;50.956;7.010;2022-11-15T17:33:59;9.00;;;2.83;;